sensor_id;sensor_type;location;lat;lon;timestamp;pressure;altitude;pressure_sealevel;temperature;humidity
19751;BME280;4663;49.120;9.730;2022-09-03T00:01:02;97724.59;;;10.61;74.49
19751;BME280;4663;49.120;9.730;2022-09-03T00:03:36;97722.53;;;10.63;74.27
19751;BME280;4663;49.120;9.730;2022-09-03T00:06:17;97720.81;;;10.56;75.20
19751;BME280;4663;49.120;9.730;2022-09-03T00:09:13;97731.47;;;10.42;75.47
19751;BME280;4663;49.120;9.730;2022-09-03T00:14:33;97722.69;;;10.33;76.00
19751;BME280;4663;49.120;9.730;2022-09-03T00:17:04;97711.34;;;10.45;75.63
19751;BME280;4663;49.120;9.730;2022-09-03T00:19:37;97715.97;;;10.51;74.61
19751;BME280;4663;49.120;9.730;2022-09-03T00:22:08;97718.16;;;10.41;73.85
19751;BME280;4663;49.120;9.730;2022-09-03T00:24:39;97712.25;;;10.52;74.11
19751;BME280;4663;49.120;9.730;2022-09-03T00:27:12;97728.41;;;10.08;77.46
19751;BME280;4663;49.120;9.730;2022-09-03T00:29:44;97729.53;;;10.36;75.83
19751;BME280;4663;49.120;9.730;2022-09-03T00:32:18;97720.06;;;10.25;76.36
19751;BME280;4663;49.120;9.730;2022-09-03T00:34:52;97722.94;;;10.38;76.21
19751;BME280;4663;49.120;9.730;2022-09-03T00:37:21;97726.50;;;10.24;75.60
19751;BME280;4663;49.120;9.730;2022-09-03T00:39:46;97727.34;;;10.46;75.04
19751;BME280;4663;49.120;9.730;2022-09-03T00:50:07;97719.31;;;10.31;73.33
19751;BME280;4663;49.120;9.730;2022-09-03T00:58:53;97721.75;;;10.48;72.62
19751;BME280;4663;49.120;9.730;2022-09-03T01:01:47;97718.47;;;10.31;73.73
19751;BME280;4663;49.120;9.730;2022-09-03T01:04:25;97720.84;;;10.19;73.89
19751;BME280;4663;49.120;9.730;2022-09-03T01:07:22;97718.78;;;10.21;75.15
19751;BME280;4663;49.120;9.730;2022-09-03T01:15:29;97705.47;;;10.19;74.36
19751;BME280;4663;49.120;9.730;2022-09-03T01:20:57;97718.19;;;10.04;76.84
19751;BME280;4663;49.120;9.730;2022-09-03T01:23:41;97711.69;;;9.98;75.14
19751;BME280;4663;49.120;9.730;2022-09-03T01:29:41;97712.88;;;10.10;73.16
19751;BME280;4663;49.120;9.730;2022-09-03T01:59:08;97702.38;;;10.37;71.75
19751;BME280;4663;49.120;9.730;2022-09-03T02:01:49;97719.50;;;10.30;74.27
19751;BME280;4663;49.120;9.730;2022-09-03T02:04:20;97724.06;;;10.51;74.15
19751;BME280;4663;49.120;9.730;2022-09-03T02:06:49;97727.16;;;10.48;73.91
19751;BME280;4663;49.120;9.730;2022-09-03T02:09:15;97710.06;;;10.62;73.23
19751;BME280;4663;49.120;9.730;2022-09-03T02:11:43;97708.00;;;10.64;72.18
19751;BME280;4663;49.120;9.730;2022-09-03T02:14:11;97717.91;;;10.57;72.93
19751;BME280;4663;49.120;9.730;2022-09-03T02:16:38;97715.84;;;10.59;72.79
19751;BME280;4663;49.120;9.730;2022-09-03T02:19:07;97711.88;;;10.77;72.50
19751;BME280;4663;49.120;9.730;2022-09-03T02:21:38;97709.75;;;10.72;72.34
19751;BME280;4663;49.120;9.730;2022-09-03T02:24:05;97718.53;;;10.59;74.60
19751;BME280;4663;49.120;9.730;2022-09-03T02:26:32;97723.38;;;10.20;76.92
19751;BME280;4663;49.120;9.730;2022-09-03T02:28:58;97714.91;;;10.08;76.61
19751;BME280;4663;49.120;9.730;2022-09-03T02:31:23;97714.63;;;10.40;75.69
19751;BME280;4663;49.120;9.730;2022-09-03T02:33:49;97693.41;;;10.59;73.59
19751;BME280;4663;49.120;9.730;2022-09-03T02:36:18;97703.88;;;10.69;73.40
19751;BME280;4663;49.120;9.730;2022-09-03T02:38:45;97712.38;;;10.65;73.41
19751;BME280;4663;49.120;9.730;2022-09-03T02:41:11;97718.88;;;10.71;73.27
19751;BME280;4663;49.120;9.730;2022-09-03T02:43:41;97723.19;;;10.65;73.53
19751;BME280;4663;49.120;9.730;2022-09-03T02:46:13;97710.69;;;10.64;73.61
19751;BME280;4663;49.120;9.730;2022-09-03T02:48:40;97720.59;;;10.79;72.89
19751;BME280;4663;49.120;9.730;2022-09-03T02:51:05;97718.94;;;10.78;73.65
19751;BME280;4663;49.120;9.730;2022-09-03T02:53:31;97718.53;;;10.81;73.35
19751;BME280;4663;49.120;9.730;2022-09-03T02:56:00;97715.28;;;10.93;72.86
19751;BME280;4663;49.120;9.730;2022-09-03T02:58:25;97721.09;;;10.89;72.75
19751;BME280;4663;49.120;9.730;2022-09-03T03:00:52;97721.34;;;10.95;73.06
19751;BME280;4663;49.120;9.730;2022-09-03T03:03:17;97717.78;;;10.94;73.02
19751;BME280;4663;49.120;9.730;2022-09-03T03:05:47;97714.00;;;10.88;72.15
19751;BME280;4663;49.120;9.730;2022-09-03T03:08:13;97710.38;;;11.03;72.79
19751;BME280;4663;49.120;9.730;2022-09-03T03:10:46;97701.09;;;10.84;73.29
19751;BME280;4663;49.120;9.730;2022-09-03T03:13:14;97698.50;;;10.97;73.14
19751;BME280;4663;49.120;9.730;2022-09-03T03:15:41;97709.16;;;11.06;72.67
19751;BME280;4663;49.120;9.730;2022-09-03T03:18:07;97710.72;;;11.15;72.60
19751;BME280;4663;49.120;9.730;2022-09-03T03:20:36;97709.16;;;11.06;73.02
19751;BME280;4663;49.120;9.730;2022-09-03T03:23:02;97708.09;;;11.07;72.89
19751;BME280;4663;49.120;9.730;2022-09-03T03:25:31;97712.00;;;10.97;73.41
19751;BME280;4663;49.120;9.730;2022-09-03T03:27:56;97710.00;;;11.06;73.47
19751;BME280;4663;49.120;9.730;2022-09-03T03:30:22;97711.91;;;11.12;72.96
19751;BME280;4663;49.120;9.730;2022-09-03T03:32:48;97706.63;;;11.04;72.91
19751;BME280;4663;49.120;9.730;2022-09-03T03:35:13;97710.00;;;11.06;73.25
19751;BME280;4663;49.120;9.730;2022-09-03T03:37:39;97704.97;;;11.03;73.77
19751;BME280;4663;49.120;9.730;2022-09-03T03:40:05;97701.53;;;11.09;73.27
19751;BME280;4663;49.120;9.730;2022-09-03T03:42:33;97705.72;;;11.12;73.20
19751;BME280;4663;49.120;9.730;2022-09-03T03:44:58;97707.75;;;11.10;73.66
19751;BME280;4663;49.120;9.730;2022-09-03T03:47:27;97711.66;;;11.07;73.82
19751;BME280;4663;49.120;9.730;2022-09-03T03:49:53;97701.78;;;11.14;73.00
19751;BME280;4663;49.120;9.730;2022-09-03T03:52:18;97707.16;;;11.14;73.02
19751;BME280;4663;49.120;9.730;2022-09-03T03:54:43;97717.47;;;11.33;73.17
19751;BME280;4663;49.120;9.730;2022-09-03T03:57:09;97717.44;;;11.26;72.96
19751;BME280;4663;49.120;9.730;2022-09-03T03:59:34;97724.66;;;11.19;73.23
19751;BME280;4663;49.120;9.730;2022-09-03T04:02:00;97735.59;;;11.39;73.30
19751;BME280;4663;49.120;9.730;2022-09-03T04:04:25;97729.34;;;11.38;73.25
19751;BME280;4663;49.120;9.730;2022-09-03T04:06:50;97721.41;;;11.30;73.57
19751;BME280;4663;49.120;9.730;2022-09-03T04:09:16;97717.69;;;11.38;73.06
19751;BME280;4663;49.120;9.730;2022-09-03T04:11:41;97722.19;;;11.24;74.41
19751;BME280;4663;49.120;9.730;2022-09-03T04:14:07;97723.00;;;11.18;75.29
19751;BME280;4663;49.120;9.730;2022-09-03T04:16:32;97726.13;;;11.21;75.12
19751;BME280;4663;49.120;9.730;2022-09-03T04:18:57;97717.03;;;11.29;72.93
19751;BME280;4663;49.120;9.730;2022-09-03T04:21:28;97721.91;;;11.12;74.81
19751;BME280;4663;49.120;9.730;2022-09-03T04:23:55;97715.72;;;10.68;75.98
19751;BME280;4663;49.120;9.730;2022-09-03T04:26:23;97722.75;;;10.90;76.15
19751;BME280;4663;49.120;9.730;2022-09-03T04:28:49;97715.03;;;11.09;74.49
19751;BME280;4663;49.120;9.730;2022-09-03T04:31:17;97715.34;;;11.28;74.77
19751;BME280;4663;49.120;9.730;2022-09-03T04:33:44;97724.25;;;11.22;74.29
19751;BME280;4663;49.120;9.730;2022-09-03T04:36:12;97724.47;;;11.20;75.62
19751;BME280;4663;49.120;9.730;2022-09-03T04:38:39;97721.72;;;11.13;75.73
19751;BME280;4663;49.120;9.730;2022-09-03T04:41:07;97718.25;;;10.98;76.08
19751;BME280;4663;49.120;9.730;2022-09-03T04:43:34;97716.16;;;11.00;76.09
19751;BME280;4663;49.120;9.730;2022-09-03T04:46:02;97719.91;;;10.99;76.61
19751;BME280;4663;49.120;9.730;2022-09-03T04:48:29;97725.00;;;11.09;75.95
19751;BME280;4663;49.120;9.730;2022-09-03T04:51:04;97722.66;;;11.06;75.86
19751;BME280;4663;49.120;9.730;2022-09-03T04:53:34;97719.06;;;11.20;76.05
19751;BME280;4663;49.120;9.730;2022-09-03T04:56:00;97718.53;;;11.38;75.01
19751;BME280;4663;49.120;9.730;2022-09-03T04:58:26;97725.69;;;11.18;75.72
19751;BME280;4663;49.120;9.730;2022-09-03T05:00:51;97720.94;;;10.98;77.18
19751;BME280;4663;49.120;9.730;2022-09-03T05:03:17;97728.19;;;11.19;76.35
19751;BME280;4663;49.120;9.730;2022-09-03T05:05:51;97723.88;;;11.25;76.97
19751;BME280;4663;49.120;9.730;2022-09-03T05:08:16;97717.97;;;11.14;77.68
19751;BME280;4663;49.120;9.730;2022-09-03T05:10:41;97714.72;;;11.26;76.47
19751;BME280;4663;49.120;9.730;2022-09-03T05:13:07;97713.91;;;11.32;75.62
19751;BME280;4663;49.120;9.730;2022-09-03T05:15:32;97722.53;;;11.42;75.70
19751;BME280;4663;49.120;9.730;2022-09-03T05:17:59;97720.22;;;11.46;76.15
19751;BME280;4663;49.120;9.730;2022-09-03T05:20:26;97727.38;;;11.54;75.69
19751;BME280;4663;49.120;9.730;2022-09-03T05:22:55;97734.00;;;11.51;75.73
19751;BME280;4663;49.120;9.730;2022-09-03T05:25:20;97733.66;;;11.61;75.22
19751;BME280;4663;49.120;9.730;2022-09-03T05:27:47;97733.66;;;11.61;75.83
19751;BME280;4663;49.120;9.730;2022-09-03T05:30:13;97730.28;;;11.59;76.10
19751;BME280;4663;49.120;9.730;2022-09-03T05:32:38;97724.91;;;11.66;75.70
19751;BME280;4663;49.120;9.730;2022-09-03T05:35:04;97730.16;;;11.74;76.28
19751;BME280;4663;49.120;9.730;2022-09-03T05:37:30;97717.47;;;11.75;75.26
19751;BME280;4663;49.120;9.730;2022-09-03T05:39:56;97719.94;;;11.63;75.86
19751;BME280;4663;49.120;9.730;2022-09-03T05:42:21;97722.84;;;11.61;76.76
19751;BME280;4663;49.120;9.730;2022-09-03T05:44:47;97731.00;;;11.75;77.06
19751;BME280;4663;49.120;9.730;2022-09-03T05:47:14;97724.53;;;11.76;77.10
19751;BME280;4663;49.120;9.730;2022-09-03T05:49:40;97728.75;;;11.85;75.41
19751;BME280;4663;49.120;9.730;2022-09-03T05:52:05;97723.97;;;11.87;76.43
19751;BME280;4663;49.120;9.730;2022-09-03T05:54:30;97727.06;;;11.84;77.39
19751;BME280;4663;49.120;9.730;2022-09-03T05:56:56;97719.22;;;11.96;76.66
19751;BME280;4663;49.120;9.730;2022-09-03T05:59:21;97723.03;;;12.09;76.46
19751;BME280;4663;49.120;9.730;2022-09-03T06:01:47;97735.13;;;12.19;77.09
19751;BME280;4663;49.120;9.730;2022-09-03T06:04:15;97730.16;;;12.16;76.72
19751;BME280;4663;49.120;9.730;2022-09-03T06:06:43;97722.25;;;12.15;77.01
19751;BME280;4663;49.120;9.730;2022-09-03T06:09:17;97725.38;;;12.18;76.13
19751;BME280;4663;49.120;9.730;2022-09-03T06:11:45;97729.78;;;12.33;75.39
19751;BME280;4663;49.120;9.730;2022-09-03T06:14:12;97728.94;;;12.39;75.48
19751;BME280;4663;49.120;9.730;2022-09-03T06:16:40;97728.59;;;12.56;75.27
19751;BME280;4663;49.120;9.730;2022-09-03T06:19:07;97719.00;;;12.60;73.52
19751;BME280;4663;49.120;9.730;2022-09-03T06:21:41;97725.25;;;12.81;73.75
19751;BME280;4663;49.120;9.730;2022-09-03T06:24:18;97723.19;;;12.90;74.77
19751;BME280;4663;49.120;9.730;2022-09-03T06:26:46;97729.00;;;13.07;73.58
19751;BME280;4663;49.120;9.730;2022-09-03T06:29:12;97728.59;;;12.96;73.70
19751;BME280;4663;49.120;9.730;2022-09-03T06:31:38;97738.31;;;13.65;73.46
19751;BME280;4663;49.120;9.730;2022-09-03T06:34:04;97732.41;;;13.82;70.26
19751;BME280;4663;49.120;9.730;2022-09-03T06:36:30;97725.09;;;14.35;68.66
19751;BME280;4663;49.120;9.730;2022-09-03T06:38:56;97727.16;;;14.97;67.05
19751;BME280;4663;49.120;9.730;2022-09-03T06:41:27;97723.06;;;15.58;65.67
19751;BME280;4663;49.120;9.730;2022-09-03T06:43:59;97732.88;;;15.77;65.05
19751;BME280;4663;49.120;9.730;2022-09-03T06:46:35;97740.03;;;16.09;64.18
19751;BME280;4663;49.120;9.730;2022-09-03T06:49:03;97733.78;;;16.39;64.23
19751;BME280;4663;49.120;9.730;2022-09-03T06:51:32;97726.22;;;16.41;62.25
19751;BME280;4663;49.120;9.730;2022-09-03T06:54:08;97728.00;;;16.90;61.98
19751;BME280;4663;49.120;9.730;2022-09-03T06:56:35;97736.03;;;16.73;62.16
19751;BME280;4663;49.120;9.730;2022-09-03T06:59:09;97732.81;;;18.08;60.67
19751;BME280;4663;49.120;9.730;2022-09-03T07:01:35;97724.09;;;17.70;59.09
19751;BME280;4663;49.120;9.730;2022-09-03T07:04:05;97729.94;;;18.15;60.30
19751;BME280;4663;49.120;9.730;2022-09-03T07:06:35;97728.75;;;18.40;58.75
19751;BME280;4663;49.120;9.730;2022-09-03T07:09:03;97734.56;;;18.43;58.78
19751;BME280;4663;49.120;9.730;2022-09-03T07:11:29;97730.31;;;18.06;59.09
19751;BME280;4663;49.120;9.730;2022-09-03T07:13:57;97723.19;;;17.28;59.54
19751;BME280;4663;49.120;9.730;2022-09-03T07:16:26;97733.38;;;16.97;60.89
19751;BME280;4663;49.120;9.730;2022-09-03T07:18:52;97721.78;;;17.14;61.09
19751;BME280;4663;49.120;9.730;2022-09-03T07:21:20;97720.19;;;17.06;60.24
19751;BME280;4663;49.120;9.730;2022-09-03T07:23:46;97730.78;;;17.26;61.58
19751;BME280;4663;49.120;9.730;2022-09-03T07:26:15;97731.00;;;17.13;60.97
19751;BME280;4663;49.120;9.730;2022-09-03T07:28:42;97725.75;;;16.99;61.43
19751;BME280;4663;49.120;9.730;2022-09-03T07:31:15;97733.94;;;16.99;61.89
19751;BME280;4663;49.120;9.730;2022-09-03T07:33:41;97734.31;;;17.63;60.97
19751;BME280;4663;49.120;9.730;2022-09-03T07:36:17;97727.91;;;17.57;60.32
19751;BME280;4663;49.120;9.730;2022-09-03T07:38:43;97731.91;;;18.78;59.02
19751;BME280;4663;49.120;9.730;2022-09-03T07:41:10;97736.78;;;18.29;57.98
19751;BME280;4663;49.120;9.730;2022-09-03T07:43:45;97743.84;;;18.71;58.97
19751;BME280;4663;49.120;9.730;2022-09-03T07:46:19;97726.28;;;19.19;58.12
19751;BME280;4663;49.120;9.730;2022-09-03T07:48:54;97738.63;;;19.78;57.55
19751;BME280;4663;49.120;9.730;2022-09-03T07:51:22;97732.88;;;20.24;56.81
19751;BME280;4663;49.120;9.730;2022-09-03T07:53:52;97721.22;;;20.62;55.91
19751;BME280;4663;49.120;9.730;2022-09-03T07:56:18;97711.47;;;21.09;54.52
19751;BME280;4663;49.120;9.730;2022-09-03T07:58:43;97731.69;;;20.98;55.33
19751;BME280;4663;49.120;9.730;2022-09-03T08:01:11;97735.03;;;21.05;55.07
19751;BME280;4663;49.120;9.730;2022-09-03T08:03:41;97735.41;;;21.62;54.94
19751;BME280;4663;49.120;9.730;2022-09-03T08:06:09;97718.47;;;20.89;53.30
19751;BME280;4663;49.120;9.730;2022-09-03T08:08:35;97735.13;;;19.60;56.16
19751;BME280;4663;49.120;9.730;2022-09-03T08:11:09;97752.03;;;18.71;58.43
19751;BME280;4663;49.120;9.730;2022-09-03T08:13:39;97747.00;;;19.49;58.31
19751;BME280;4663;49.120;9.730;2022-09-03T08:16:06;97747.16;;;19.25;58.29
19751;BME280;4663;49.120;9.730;2022-09-03T08:18:34;97745.84;;;18.93;58.38
19751;BME280;4663;49.120;9.730;2022-09-03T08:21:03;97737.38;;;18.60;58.85
19751;BME280;4663;49.120;9.730;2022-09-03T08:23:31;97743.53;;;19.19;59.28
19751;BME280;4663;49.120;9.730;2022-09-03T08:26:00;97736.06;;;19.15;57.55
19751;BME280;4663;49.120;9.730;2022-09-03T08:28:25;97740.88;;;18.73;58.56
19751;BME280;4663;49.120;9.730;2022-09-03T08:30:51;97749.47;;;19.16;58.98
19751;BME280;4663;49.120;9.730;2022-09-03T08:33:16;97739.78;;;19.43;57.74
19751;BME280;4663;49.120;9.730;2022-09-03T08:36:05;97748.66;;;19.33;57.89
19751;BME280;4663;49.120;9.730;2022-09-03T08:38:32;97740.25;;;19.79;57.55
19751;BME280;4663;49.120;9.730;2022-09-03T08:44:08;97751.31;;;19.84;57.22
19751;BME280;4663;49.120;9.730;2022-09-03T08:46:46;97755.66;;;20.75;57.27
19751;BME280;4663;49.120;9.730;2022-09-03T08:49:20;97747.97;;;20.77;55.90
19751;BME280;4663;49.120;9.730;2022-09-03T08:51:47;97740.66;;;21.26;55.75
19751;BME280;4663;49.120;9.730;2022-09-03T08:54:15;97751.91;;;21.62;55.43
19751;BME280;4663;49.120;9.730;2022-09-03T08:56:41;97738.47;;;21.66;55.47
19751;BME280;4663;49.120;9.730;2022-09-03T08:59:08;97749.53;;;21.81;55.81
19751;BME280;4663;49.120;9.730;2022-09-03T09:04:28;97734.97;;;21.76;54.37
19751;BME280;4663;49.120;9.730;2022-09-03T09:09:49;97728.56;;;21.60;54.71
19751;BME280;4663;49.120;9.730;2022-09-03T09:22:58;97745.06;;;20.89;56.51
19751;BME280;4663;49.120;9.730;2022-09-03T09:25:25;97748.91;;;21.26;56.04
19751;BME280;4663;49.120;9.730;2022-09-03T09:28:00;97747.13;;;21.09;56.32
19751;BME280;4663;49.120;9.730;2022-09-03T09:30:30;97741.63;;;21.04;56.73
19751;BME280;4663;49.120;9.730;2022-09-03T09:32:56;97749.28;;;21.02;55.94
19751;BME280;4663;49.120;9.730;2022-09-03T09:35:22;97756.34;;;21.74;55.85
19751;BME280;4663;49.120;9.730;2022-09-03T09:40:23;97759.94;;;22.43;55.12
19751;BME280;4663;49.120;9.730;2022-09-03T09:42:50;97744.66;;;23.31;53.93
19751;BME280;4663;49.120;9.730;2022-09-03T09:45:23;97726.84;;;22.02;53.42
19751;BME280;4663;49.120;9.730;2022-09-03T09:47:48;97753.84;;;22.15;55.50
19751;BME280;4663;49.120;9.730;2022-09-03T09:50:19;97745.66;;;23.71;52.53
19751;BME280;4663;49.120;9.730;2022-09-03T09:52:45;97737.50;;;22.78;52.58
19751;BME280;4663;49.120;9.730;2022-09-03T09:55:16;97747.41;;;21.46;55.03
19751;BME280;4663;49.120;9.730;2022-09-03T09:57:42;97735.91;;;21.49;55.22
19751;BME280;4663;49.120;9.730;2022-09-03T10:00:16;97735.28;;;22.59;53.77
19751;BME280;4663;49.120;9.730;2022-09-03T10:02:52;97738.88;;;21.37;54.69
19751;BME280;4663;49.120;9.730;2022-09-03T10:05:29;97739.34;;;21.77;55.54
19751;BME280;4663;49.120;9.730;2022-09-03T10:08:04;97739.09;;;20.64;57.26
19751;BME280;4663;49.120;9.730;2022-09-03T10:10:32;97738.69;;;21.54;55.71
19751;BME280;4663;49.120;9.730;2022-09-03T10:15:44;97745.19;;;22.86;54.15
19751;BME280;4663;49.120;9.730;2022-09-03T10:24:13;97743.56;;;23.06;53.68
19751;BME280;4663;49.120;9.730;2022-09-03T10:26:42;97743.81;;;22.73;55.24
19751;BME280;4663;49.120;9.730;2022-09-03T10:29:11;97730.25;;;22.40;54.97
19751;BME280;4663;49.120;9.730;2022-09-03T10:31:55;97724.94;;;22.02;55.00
19751;BME280;4663;49.120;9.730;2022-09-03T10:34:34;97717.06;;;21.25;55.89
19751;BME280;4663;49.120;9.730;2022-09-03T10:39:38;97726.81;;;24.05;53.58
19751;BME280;4663;49.120;9.730;2022-09-03T10:48:24;97710.16;;;24.31;52.41
19751;BME280;4663;49.120;9.730;2022-09-03T10:51:03;97709.31;;;23.74;52.75
19751;BME280;4663;49.120;9.730;2022-09-03T10:56:40;97707.06;;;23.87;53.19
19751;BME280;4663;49.120;9.730;2022-09-03T11:07:45;97702.84;;;21.76;56.42
19751;BME280;4663;49.120;9.730;2022-09-03T11:10:15;97700.59;;;21.20;57.32
19751;BME280;4663;49.120;9.730;2022-09-03T11:16:01;97703.66;;;20.90;59.21
19751;BME280;4663;49.120;9.730;2022-09-03T11:18:36;97705.19;;;21.47;59.39
19751;BME280;4663;49.120;9.730;2022-09-03T11:21:09;97695.63;;;22.34;57.54
19751;BME280;4663;49.120;9.730;2022-09-03T11:23:40;97685.41;;;22.14;56.61
19751;BME280;4663;49.120;9.730;2022-09-03T11:26:08;97671.63;;;21.93;56.19
19751;BME280;4663;49.120;9.730;2022-09-03T11:34:46;97674.00;;;21.25;57.01
19751;BME280;4663;49.120;9.730;2022-09-03T11:36:46;97676.09;;;21.56;57.16
19751;BME280;4663;49.120;9.730;2022-09-03T11:41:40;97678.31;;;22.33;55.96
19751;BME280;4663;49.120;9.730;2022-09-03T11:44:17;97667.22;;;21.33;56.33
19751;BME280;4663;49.120;9.730;2022-09-03T11:46:54;97659.72;;;21.77;56.46
19751;BME280;4663;49.120;9.730;2022-09-03T11:49:31;97660.19;;;22.48;55.68
19751;BME280;4663;49.120;9.730;2022-09-03T11:52:00;97668.97;;;22.50;56.05
19751;BME280;4663;49.120;9.730;2022-09-03T11:54:26;97653.59;;;22.70;55.46
19751;BME280;4663;49.120;9.730;2022-09-03T11:57:26;97656.28;;;23.27;54.93
19751;BME280;4663;49.120;9.730;2022-09-03T11:59:53;97659.63;;;23.08;54.74
19751;BME280;4663;49.120;9.730;2022-09-03T12:10:02;97665.16;;;22.56;55.22
19751;BME280;4663;49.120;9.730;2022-09-03T12:12:48;97660.44;;;23.09;54.20
19751;BME280;4663;49.120;9.730;2022-09-03T12:18:18;97679.69;;;23.35;54.88
19751;BME280;4663;49.120;9.730;2022-09-03T12:20:47;97679.72;;;23.19;54.64
19751;BME280;4663;49.120;9.730;2022-09-03T12:25:57;97693.22;;;22.84;54.91
19751;BME280;4663;49.120;9.730;2022-09-03T12:28:27;97694.03;;;22.54;55.53
19751;BME280;4663;49.120;9.730;2022-09-03T12:31:04;97689.59;;;23.05;54.22
19751;BME280;4663;49.120;9.730;2022-09-03T12:33:30;97688.81;;;23.20;55.03
19751;BME280;4663;49.120;9.730;2022-09-03T12:36:00;97689.09;;;22.71;56.26
19751;BME280;4663;49.120;9.730;2022-09-03T12:38:27;97683.59;;;22.71;55.94
19751;BME280;4663;49.120;9.730;2022-09-03T12:40:53;97679.44;;;23.00;55.45
19751;BME280;4663;49.120;9.730;2022-09-03T12:43:19;97677.81;;;22.73;55.15
19751;BME280;4663;49.120;9.730;2022-09-03T12:45:48;97673.63;;;22.34;56.41
19751;BME280;4663;49.120;9.730;2022-09-03T12:48:17;97681.31;;;22.32;56.35
19751;BME280;4663;49.120;9.730;2022-09-03T12:50:44;97686.47;;;22.02;57.44
19751;BME280;4663;49.120;9.730;2022-09-03T12:53:13;97677.94;;;21.40;58.03
19751;BME280;4663;49.120;9.730;2022-09-03T13:00:39;97694.81;;;21.59;57.75
19751;BME280;4663;49.120;9.730;2022-09-03T13:05:51;97706.81;;;21.48;60.42
19751;BME280;4663;49.120;9.730;2022-09-03T13:08:21;97703.81;;;21.49;60.40
19751;BME280;4663;49.120;9.730;2022-09-03T13:10:51;97711.72;;;21.46;60.79
19751;BME280;4663;49.120;9.730;2022-09-03T13:13:23;97700.13;;;21.33;59.54
19751;BME280;4663;49.120;9.730;2022-09-03T13:35:15;97703.34;;;20.87;60.48
19751;BME280;4663;49.120;9.730;2022-09-03T13:37:55;97685.13;;;21.03;59.38
19751;BME280;4663;49.120;9.730;2022-09-03T13:40:40;97687.66;;;20.77;60.09
19751;BME280;4663;49.120;9.730;2022-09-03T13:45:59;97701.22;;;20.34;60.91
19751;BME280;4663;49.120;9.730;2022-09-03T13:51:42;97703.59;;;20.80;60.62
19751;BME280;4663;49.120;9.730;2022-09-03T13:54:32;97714.44;;;20.70;61.77
19751;BME280;4663;49.120;9.730;2022-09-03T14:03:09;97690.38;;;20.72;61.07
19751;BME280;4663;49.120;9.730;2022-09-03T14:05:53;97691.38;;;20.98;60.60
19751;BME280;4663;49.120;9.730;2022-09-03T14:08:38;97691.75;;;21.12;60.91
19751;BME280;4663;49.120;9.730;2022-09-03T14:11:34;97691.94;;;21.38;61.07
19751;BME280;4663;49.120;9.730;2022-09-03T14:14:13;97674.66;;;21.38;59.19
19751;BME280;4663;49.120;9.730;2022-09-03T14:16:47;97685.38;;;21.45;60.35
19751;BME280;4663;49.120;9.730;2022-09-03T14:24:54;97681.06;;;21.59;59.51
19751;BME280;4663;49.120;9.730;2022-09-03T14:27:27;97684.94;;;21.68;60.21
19751;BME280;4663;49.120;9.730;2022-09-03T14:30:00;97695.25;;;21.40;61.97
19751;BME280;4663;49.120;9.730;2022-09-03T14:35:27;97690.38;;;20.72;62.81
19751;BME280;4663;49.120;9.730;2022-09-03T14:48:43;97701.63;;;20.48;64.07
19751;BME280;4663;49.120;9.730;2022-09-03T14:57:47;97707.00;;;20.37;64.35
19751;BME280;4663;49.120;9.730;2022-09-03T15:07:53;97732.44;;;19.88;64.11
19751;BME280;4663;49.120;9.730;2022-09-03T15:12:58;97737.59;;;19.62;64.72
19751;BME280;4663;49.120;9.730;2022-09-03T15:20:57;97759.16;;;19.58;65.17
19751;BME280;4663;49.120;9.730;2022-09-03T15:34:02;97735.56;;;19.52;65.15
19751;BME280;4663;49.120;9.730;2022-09-03T15:36:44;97742.13;;;19.17;65.41
19751;BME280;4663;49.120;9.730;2022-09-03T15:39:25;97735.56;;;18.83;65.64
19751;BME280;4663;49.120;9.730;2022-09-03T15:41:55;97733.81;;;19.11;64.39
19751;BME280;4663;49.120;9.730;2022-09-03T15:44:24;97739.13;;;19.18;64.49
19751;BME280;4663;49.120;9.730;2022-09-03T15:47:03;97742.19;;;19.22;63.98
19751;BME280;4663;49.120;9.730;2022-09-03T15:50:01;97740.53;;;19.04;64.39
19751;BME280;4663;49.120;9.730;2022-09-03T15:52:30;97740.84;;;19.07;64.16
19751;BME280;4663;49.120;9.730;2022-09-03T15:55:13;97735.97;;;18.92;64.70
19751;BME280;4663;49.120;9.730;2022-09-03T15:57:55;97736.00;;;19.09;64.93
19751;BME280;4663;49.120;9.730;2022-09-03T16:00:31;97742.13;;;19.17;64.55
19751;BME280;4663;49.120;9.730;2022-09-03T16:03:07;97748.81;;;18.92;65.33
19751;BME280;4663;49.120;9.730;2022-09-03T16:05:51;97746.69;;;18.94;65.42
19751;BME280;4663;49.120;9.730;2022-09-03T16:08:33;97742.59;;;18.79;65.92
19751;BME280;4663;49.120;9.730;2022-09-03T16:14:22;97755.41;;;18.61;68.57
19751;BME280;4663;49.120;9.730;2022-09-03T16:17:07;97762.91;;;18.66;72.16
19751;BME280;4663;49.120;9.730;2022-09-03T16:19:55;97768.88;;;18.22;77.26
19751;BME280;4663;49.120;9.730;2022-09-03T16:22:28;97765.06;;;18.23;78.33
19751;BME280;4663;49.120;9.730;2022-09-03T16:27:32;97776.91;;;17.40;83.13
19751;BME280;4663;49.120;9.730;2022-09-03T16:30:11;97769.19;;;17.13;85.16
19751;BME280;4663;49.120;9.730;2022-09-03T16:32:45;97763.25;;;17.16;86.55
19751;BME280;4663;49.120;9.730;2022-09-03T16:35:28;97758.31;;;16.82;88.01
19751;BME280;4663;49.120;9.730;2022-09-03T16:43:55;97764.47;;;16.16;90.20
19751;BME280;4663;49.120;9.730;2022-09-03T16:46:23;97769.44;;;16.19;91.53
19751;BME280;4663;49.120;9.730;2022-09-03T16:52:03;97780.03;;;16.46;90.87
19751;BME280;4663;49.120;9.730;2022-09-03T17:00:21;97767.59;;;16.32;91.04
19751;BME280;4663;49.120;9.730;2022-09-03T17:09:06;97770.91;;;15.65;94.50
19751;BME280;4663;49.120;9.730;2022-09-03T17:11:53;97769.03;;;15.66;94.21
19751;BME280;4663;49.120;9.730;2022-09-03T17:14:26;97771.59;;;15.79;93.50
19751;BME280;4663;49.120;9.730;2022-09-03T17:40:42;97812.16;;;15.11;94.97
19751;BME280;4663;49.120;9.730;2022-09-03T17:43:27;97815.53;;;15.07;94.38
19751;BME280;4663;49.120;9.730;2022-09-03T17:46:27;97818.34;;;14.93;95.30
19751;BME280;4663;49.120;9.730;2022-09-03T17:49:05;97820.09;;;14.81;96.79
19751;BME280;4663;49.120;9.730;2022-09-03T17:51:49;97824.94;;;14.79;96.16
19751;BME280;4663;49.120;9.730;2022-09-03T18:02:58;97851.28;;;14.71;95.06
19751;BME280;4663;49.120;9.730;2022-09-03T18:05:45;97850.03;;;14.67;95.93
19751;BME280;4663;49.120;9.730;2022-09-03T18:08:22;97856.56;;;14.53;96.51
19751;BME280;4663;49.120;9.730;2022-09-03T18:16:26;97877.56;;;14.78;93.79